createdAt,value
2018-05-31T00:00:11.478Z,20.41
2018-05-31T00:01:11.470Z,20.38
2018-05-31T00:02:11.459Z,20.38
2018-05-31T00:03:11.465Z,20.47
2018-05-31T00:04:11.437Z,20.41
2018-05-31T00:05:11.421Z,20.43
2018-05-31T00:06:11.419Z,20.38
2018-05-31T00:07:11.402Z,20.38
2018-05-31T00:08:11.410Z,20.38
2018-05-31T00:09:11.386Z,20.35
2018-05-31T00:10:11.390Z,20.23
2018-05-31T00:11:11.361Z,20.29
2018-05-31T00:12:11.362Z,20.36
2018-05-31T00:13:11.340Z,20.32
2018-05-31T00:14:11.352Z,20.39
2018-05-31T00:15:11.341Z,20.39
2018-05-31T00:16:11.312Z,20.39
2018-05-31T00:17:11.304Z,20.33
2018-05-31T00:18:11.289Z,20.31
2018-05-31T00:19:11.276Z,20.31
2018-05-31T00:20:11.268Z,20.26
2018-05-31T00:21:11.276Z,20.31
2018-05-31T00:22:11.246Z,20.24
2018-05-31T00:23:11.234Z,20.32
2018-05-31T00:24:11.229Z,20.31
2018-05-31T00:25:11.223Z,20.31
2018-05-31T00:26:11.226Z,20.24
2018-05-31T00:27:11.197Z,20.17
2018-05-31T00:28:11.185Z,20.13
2018-05-31T00:29:11.170Z,20.14
2018-05-31T00:30:11.164Z,20.16
2018-05-31T00:31:11.157Z,20.10
2018-05-31T00:32:11.171Z,20.10
2018-05-31T00:33:11.131Z,20.02
2018-05-31T00:34:11.124Z,20.03
2018-05-31T00:35:11.111Z,20.05
2018-05-31T00:36:11.100Z,19.99
2018-05-31T00:37:11.091Z,20.05
2018-05-31T00:38:11.094Z,20.05
2018-05-31T00:39:11.067Z,20.13
2018-05-31T00:40:11.062Z,20.06
2018-05-31T00:41:11.047Z,20.13
2018-05-31T00:42:11.060Z,20.01
2018-05-31T00:43:11.029Z,20.02
2018-05-31T00:44:11.039Z,20.03
2018-05-31T00:45:11.008Z,20.05
2018-05-31T00:46:10.997Z,20.03
2018-05-31T00:47:10.982Z,20.03
2018-05-31T00:48:10.988Z,20.06
2018-05-31T00:49:10.969Z,20.02
2018-05-31T00:50:10.956Z,20.01
2018-05-31T00:51:10.944Z,20.08
2018-05-31T00:52:10.944Z,20.01
2018-05-31T00:53:10.924Z,20.05
2018-05-31T00:54:10.928Z,20.03
2018-05-31T00:55:10.895Z,19.98
2018-05-31T00:56:10.886Z,19.96
2018-05-31T00:57:10.873Z,19.98
2018-05-31T00:58:10.867Z,20.08
2018-05-31T00:59:10.870Z,19.99
2018-05-31T01:00:10.845Z,20.02
2018-05-31T01:01:10.832Z,19.96
2018-05-31T01:02:10.824Z,20.08
2018-05-31T01:03:10.811Z,19.98
2018-05-31T01:04:10.817Z,20.08
2018-05-31T01:05:10.816Z,19.98
2018-05-31T01:06:10.785Z,20.01
2018-05-31T01:07:10.763Z,19.99
2018-05-31T01:08:10.766Z,19.95
2018-05-31T01:09:10.743Z,20.08
2018-05-31T01:10:10.759Z,19.99
2018-05-31T01:11:10.727Z,20.10
2018-05-31T01:12:10.715Z,19.98
2018-05-31T01:13:10.711Z,20.02
2018-05-31T01:14:10.696Z,19.98
2018-05-31T01:15:10.699Z,19.92
2018-05-31T01:16:10.674Z,19.88
2018-05-31T01:17:10.658Z,19.96
2018-05-31T01:18:10.658Z,20.02
2018-05-31T01:19:10.637Z,19.99
2018-05-31T01:20:10.639Z,19.84
2018-05-31T01:21:10.612Z,19.84
2018-05-31T01:22:10.607Z,19.83
2018-05-31T01:23:10.608Z,19.83
2018-05-31T01:24:10.590Z,19.84
2018-05-31T01:25:10.587Z,19.84
2018-05-31T01:26:10.571Z,19.83
2018-05-31T01:27:10.554Z,19.83
2018-05-31T01:28:10.543Z,19.80
2018-05-31T01:29:10.532Z,19.73
2018-05-31T01:30:10.549Z,19.77
2018-05-31T01:31:10.511Z,19.71
2018-05-31T01:32:10.499Z,19.76
2018-05-31T01:33:10.493Z,19.80
2018-05-31T01:34:10.485Z,19.80
2018-05-31T01:35:10.471Z,19.80
2018-05-31T01:36:10.472Z,19.83
2018-05-31T01:37:10.447Z,19.78
2018-05-31T01:38:10.434Z,19.83
2018-05-31T01:39:10.425Z,19.81
2018-05-31T01:40:10.422Z,19.87
2018-05-31T01:41:10.441Z,19.78
2018-05-31T01:42:10.396Z,19.77
2018-05-31T01:43:10.382Z,19.80
2018-05-31T01:44:10.372Z,19.83
2018-05-31T01:45:10.361Z,19.77
2018-05-31T01:46:10.348Z,19.78
2018-05-31T01:47:10.353Z,19.76
2018-05-31T01:48:10.335Z,19.76
2018-05-31T01:49:10.321Z,19.73
2018-05-31T01:50:10.309Z,19.69
2018-05-31T01:51:10.298Z,19.76
2018-05-31T01:52:10.306Z,19.65
2018-05-31T01:53:10.269Z,19.71
2018-05-31T01:54:10.270Z,19.69
2018-05-31T01:55:10.254Z,19.66
2018-05-31T01:56:10.236Z,19.62
2018-05-31T01:57:10.246Z,19.73
2018-05-31T01:58:10.221Z,19.69
2018-05-31T01:59:10.212Z,19.69
2018-05-31T02:00:10.199Z,19.69
2018-05-31T02:01:10.184Z,19.69
2018-05-31T02:02:10.200Z,19.68
2018-05-31T02:03:10.193Z,19.61
2018-05-31T02:04:10.157Z,19.63
2018-05-31T02:05:10.146Z,19.68
2018-05-31T02:06:10.138Z,19.69
2018-05-31T02:07:10.124Z,19.73
2018-05-31T02:08:10.109Z,19.71
2018-05-31T02:09:10.119Z,19.65
2018-05-31T02:10:10.092Z,19.73
2018-05-31T02:11:10.094Z,19.71
2018-05-31T02:12:10.073Z,19.68
2018-05-31T02:13:10.073Z,19.63
2018-05-31T02:14:10.065Z,19.65
2018-05-31T02:15:10.035Z,19.62
2018-05-31T02:16:10.027Z,19.61
2018-05-31T02:17:10.022Z,19.59
2018-05-31T02:18:10.042Z,19.66
2018-05-31T02:19:10.011Z,19.59
2018-05-31T02:20:09.982Z,19.68
2018-05-31T02:21:09.971Z,19.61
2018-05-31T02:22:09.971Z,19.71
2018-05-31T02:23:09.953Z,19.51
2018-05-31T02:24:09.953Z,19.59
2018-05-31T02:25:09.934Z,19.55
2018-05-31T02:26:09.934Z,19.56
2018-05-31T02:27:09.923Z,19.50
2018-05-31T02:28:09.899Z,19.58
2018-05-31T02:29:09.903Z,19.56
2018-05-31T02:30:09.899Z,19.61
2018-05-31T02:31:09.868Z,19.51
2018-05-31T02:32:09.866Z,19.58
2018-05-31T02:33:09.843Z,19.62
2018-05-31T02:34:09.865Z,19.69
2018-05-31T02:35:09.823Z,19.81
2018-05-31T02:36:09.812Z,19.92
2018-05-31T02:37:09.809Z,19.99
2018-05-31T02:38:09.792Z,20.01
2018-05-31T02:39:09.780Z,20.06
2018-05-31T02:40:09.778Z,20.03
2018-05-31T02:41:09.768Z,19.91
2018-05-31T02:42:09.742Z,19.99
2018-05-31T02:43:09.734Z,20.08
2018-05-31T02:44:09.718Z,19.98
2018-05-31T02:45:09.715Z,20.14
2018-05-31T02:46:09.718Z,20.16
2018-05-31T02:47:09.691Z,20.13
2018-05-31T02:48:09.685Z,20.24
2018-05-31T02:49:09.667Z,20.23
2018-05-31T02:50:09.658Z,20.18
2018-05-31T02:51:09.648Z,20.28
2018-05-31T02:52:09.645Z,20.28
2018-05-31T02:53:09.619Z,20.32
2018-05-31T02:54:09.607Z,20.24
2018-05-31T02:55:09.595Z,20.13
2018-05-31T02:56:09.585Z,20.13
2018-05-31T02:57:09.575Z,20.14
2018-05-31T02:58:09.580Z,20.14
2018-05-31T02:59:09.556Z,20.24
2018-05-31T03:00:09.541Z,20.32
2018-05-31T03:01:09.523Z,20.31
2018-05-31T03:02:09.537Z,20.23
2018-05-31T03:03:09.524Z,20.16
2018-05-31T03:04:09.486Z,20.16
2018-05-31T03:05:09.484Z,20.10
2018-05-31T03:06:09.480Z,20.14
2018-05-31T03:07:09.456Z,20.10
2018-05-31T03:08:09.442Z,20.11
2018-05-31T03:09:09.446Z,20.10
2018-05-31T03:10:09.430Z,20.14
2018-05-31T03:11:09.411Z,20.03
2018-05-31T03:12:09.420Z,20.05
2018-05-31T03:13:09.392Z,20.10
2018-05-31T03:14:09.380Z,20.08
2018-05-31T03:15:09.363Z,20.02
2018-05-31T03:16:09.360Z,20.02
2018-05-31T03:17:09.340Z,20.01
2018-05-31T03:18:09.357Z,20.02
2018-05-31T03:19:09.320Z,19.94
2018-05-31T03:20:09.312Z,20.02
2018-05-31T03:21:09.300Z,19.88
2018-05-31T03:22:09.290Z,19.91
2018-05-31T03:23:09.282Z,19.92
2018-05-31T03:24:09.295Z,19.92
2018-05-31T03:25:09.258Z,19.83
2018-05-31T03:26:09.246Z,19.81
2018-05-31T03:27:09.233Z,19.76
2018-05-31T03:28:09.223Z,19.77
2018-05-31T03:29:09.234Z,19.77
2018-05-31T03:30:09.209Z,19.71
2018-05-31T03:31:09.201Z,19.77
2018-05-31T03:32:09.176Z,19.69
2018-05-31T03:33:09.161Z,19.69
2018-05-31T03:34:09.156Z,19.63
2018-05-31T03:35:09.146Z,19.71
2018-05-31T03:36:09.150Z,19.66
2018-05-31T03:37:09.156Z,19.71
2018-05-31T03:38:09.111Z,19.62
2018-05-31T03:39:09.104Z,19.73
2018-05-31T03:40:09.088Z,19.71
2018-05-31T03:41:09.091Z,19.71
2018-05-31T03:42:09.074Z,19.73
2018-05-31T03:43:09.049Z,19.71
2018-05-31T03:44:09.037Z,19.65
2018-05-31T03:45:09.042Z,19.65
2018-05-31T03:46:09.036Z,19.80
2018-05-31T03:47:09.010Z,19.87
2018-05-31T03:48:09.002Z,19.95
2018-05-31T03:49:08.994Z,20.01
2018-05-31T03:50:08.989Z,20.06
2018-05-31T03:51:08.977Z,20.11
2018-05-31T03:52:08.966Z,20.14
2018-05-31T03:53:08.956Z,20.16
2018-05-31T03:54:08.932Z,20.26
2018-05-31T03:55:08.917Z,20.14
2018-05-31T03:56:08.905Z,20.21
2018-05-31T03:57:08.913Z,20.18
2018-05-31T03:58:08.881Z,20.13
2018-05-31T03:59:08.919Z,20.13
2018-05-31T04:00:08.898Z,20.16
2018-05-31T04:01:08.877Z,20.28
2018-05-31T04:02:08.855Z,20.26
2018-05-31T04:03:08.830Z,20.17
2018-05-31T04:04:08.813Z,20.28
2018-05-31T04:05:08.805Z,20.23
2018-05-31T04:06:08.802Z,20.31
2018-05-31T04:07:08.800Z,20.16
2018-05-31T04:08:08.770Z,20.24
2018-05-31T04:09:08.769Z,20.17
2018-05-31T04:10:08.769Z,20.16
2018-05-31T04:11:08.741Z,20.17
2018-05-31T04:12:08.733Z,20.16
2018-05-31T04:13:08.824Z,20.03
2018-05-31T04:14:08.710Z,20.02
2018-05-31T04:15:08.717Z,20.16
2018-05-31T04:16:08.694Z,20.03
2018-05-31T04:17:08.681Z,20.03
2018-05-31T04:18:08.660Z,20.03
2018-05-31T04:19:08.665Z,20.02
2018-05-31T04:20:08.647Z,20.03
2018-05-31T04:21:08.648Z,20.02
2018-05-31T04:22:08.618Z,20.03
2018-05-31T04:23:08.618Z,20.11
2018-05-31T04:24:08.592Z,19.96
2018-05-31T04:25:08.608Z,20.01
2018-05-31T04:26:08.571Z,20.03
2018-05-31T04:27:08.560Z,20.02
2018-05-31T04:28:08.562Z,20.03
2018-05-31T04:29:08.543Z,20.05
2018-05-31T04:30:08.527Z,20.02
2018-05-31T04:31:08.541Z,20.16
2018-05-31T04:32:08.511Z,20.16
2018-05-31T04:33:08.502Z,20.21
2018-05-31T04:34:08.499Z,20.26
2018-05-31T04:35:08.475Z,20.39
2018-05-31T04:36:08.477Z,20.42
2018-05-31T04:37:08.459Z,20.55
2018-05-31T04:38:08.441Z,20.64
2018-05-31T04:39:08.430Z,20.70
2018-05-31T04:40:08.440Z,20.69
2018-05-31T04:42:26.170Z,20.84
2018-05-31T04:43:08.424Z,20.94
2018-05-31T04:44:11.465Z,20.99
2018-05-31T04:46:09.160Z,20.98
2018-05-31T04:47:08.431Z,20.97
2018-05-31T04:48:08.357Z,20.92
2018-05-31T04:49:08.367Z,20.95
2018-05-31T04:50:08.315Z,20.98
2018-05-31T04:51:08.316Z,20.97
2018-05-31T04:52:08.296Z,21.03
2018-05-31T04:53:08.303Z,21.09
2018-05-31T04:54:08.286Z,21.19
2018-05-31T04:55:08.267Z,21.21
2018-05-31T04:56:10.574Z,21.17
2018-05-31T04:57:08.250Z,21.19
2018-05-31T04:58:08.280Z,21.17
2018-05-31T04:59:08.219Z,21.21
2018-05-31T05:00:08.207Z,21.24
2018-05-31T05:01:08.209Z,21.17
2018-05-31T05:02:09.192Z,21.34
2018-05-31T05:03:08.197Z,21.37
2018-05-31T05:04:29.175Z,21.35
2018-05-31T05:05:08.157Z,21.46
2018-05-31T05:06:09.404Z,21.37
2018-05-31T05:07:08.137Z,21.40
2018-05-31T05:08:08.122Z,21.35
2018-05-31T05:09:24.582Z,21.47
2018-05-31T05:10:10.646Z,21.53
2018-05-31T05:11:08.097Z,21.38
2018-05-31T05:12:08.082Z,21.49
2018-05-31T05:13:08.076Z,21.40
2018-05-31T05:14:08.073Z,21.46
2018-05-31T05:15:08.086Z,21.42
2018-05-31T05:16:08.065Z,21.49
2018-05-31T05:17:08.035Z,21.42
2018-05-31T05:18:08.049Z,21.50
2018-05-31T05:19:08.019Z,21.42
2018-05-31T05:20:08.038Z,21.56
2018-05-31T05:21:08.030Z,21.44
2018-05-31T05:22:07.990Z,21.46
2018-05-31T05:23:13.189Z,21.47
2018-05-31T05:24:07.993Z,21.53
2018-05-31T05:25:07.955Z,21.49
2018-05-31T05:26:07.981Z,21.52
2018-05-31T05:27:07.944Z,21.53
2018-05-31T05:28:07.927Z,21.64
2018-05-31T05:29:07.920Z,21.71
2018-05-31T05:30:07.904Z,21.67
2018-05-31T05:31:07.906Z,21.74
2018-05-31T05:32:07.883Z,21.74
2018-05-31T05:33:07.917Z,21.88
2018-05-31T05:34:07.857Z,21.92
2018-05-31T05:35:07.874Z,21.90
2018-05-31T05:36:07.855Z,21.94
2018-05-31T05:37:07.832Z,21.96
2018-05-31T05:38:07.838Z,21.90
2018-05-31T05:39:07.810Z,21.96
2018-05-31T05:40:07.804Z,21.91
2018-05-31T05:41:07.812Z,21.86
2018-05-31T05:42:07.783Z,21.90
2018-05-31T05:43:07.777Z,21.88
2018-05-31T05:44:07.777Z,21.99
2018-05-31T05:45:07.780Z,21.79
2018-05-31T05:46:07.762Z,21.71
2018-05-31T05:47:07.736Z,21.68
2018-05-31T05:48:07.740Z,21.74
2018-05-31T05:49:07.710Z,21.71
2018-05-31T05:50:07.747Z,21.67
2018-05-31T05:51:07.703Z,21.65
2018-05-31T05:52:07.697Z,21.71
2018-05-31T05:53:07.692Z,21.72
2018-05-31T05:54:07.663Z,21.71
2018-05-31T05:55:07.657Z,21.84
2018-05-31T05:56:07.669Z,21.94
2018-05-31T05:57:07.650Z,21.99
2018-05-31T05:58:07.622Z,22.03
2018-05-31T05:59:07.618Z,22.12
2018-05-31T06:00:07.604Z,22.10
2018-05-31T06:01:07.593Z,22.15
2018-05-31T06:02:07.611Z,22.28
2018-05-31T06:03:07.571Z,22.28
2018-05-31T06:04:07.583Z,22.18
2018-05-31T06:05:07.558Z,22.17
2018-05-31T06:06:07.555Z,22.21
2018-05-31T06:07:07.549Z,22.09
2018-05-31T06:08:07.541Z,21.99
2018-05-31T06:09:07.521Z,21.98
2018-05-31T06:10:07.576Z,22.05
2018-05-31T06:11:07.493Z,21.96
2018-05-31T06:12:07.500Z,22.03
2018-05-31T06:13:07.500Z,22.05
2018-05-31T06:14:07.487Z,22.17
2018-05-31T06:15:07.452Z,22.10
2018-05-31T06:16:07.461Z,22.15
2018-05-31T06:17:07.458Z,22.09
2018-05-31T06:18:07.429Z,22.14
2018-05-31T06:19:07.425Z,21.98
2018-05-31T06:20:07.413Z,22.06
2018-05-31T06:21:07.395Z,22.10
2018-05-31T06:22:07.392Z,22.17
2018-05-31T06:23:07.391Z,22.09
2018-05-31T06:24:07.370Z,22.07
2018-05-31T06:25:07.358Z,22.03
2018-05-31T06:26:07.387Z,22.03
2018-05-31T06:27:07.342Z,21.98
2018-05-31T06:28:07.361Z,21.98
2018-05-31T06:29:07.342Z,21.99
2018-05-31T06:30:07.306Z,22.03
2018-05-31T06:31:07.301Z,22.02
2018-05-31T06:32:07.292Z,21.99
2018-05-31T06:33:07.279Z,22.09
2018-05-31T06:34:07.284Z,22.15
2018-05-31T06:35:07.256Z,22.06
2018-05-31T06:36:07.261Z,22.09
2018-05-31T06:37:07.288Z,22.09
2018-05-31T06:38:07.253Z,22.17
2018-05-31T06:39:07.707Z,22.10
2018-05-31T06:40:07.232Z,22.18
2018-05-31T06:41:07.204Z,22.22
2018-05-31T06:42:07.185Z,22.24
2018-05-31T06:43:07.176Z,22.27
2018-05-31T06:44:07.165Z,22.33
2018-05-31T06:45:07.179Z,22.47
2018-05-31T06:46:07.144Z,22.57
2018-05-31T06:47:07.138Z,22.68
2018-05-31T06:48:07.146Z,22.65
2018-05-31T06:49:07.119Z,22.64
2018-05-31T06:50:07.119Z,22.72
2018-05-31T06:51:07.117Z,22.70
2018-05-31T06:52:07.088Z,22.80
2018-05-31T06:53:07.084Z,22.79
2018-05-31T06:54:07.069Z,22.77
2018-05-31T06:55:07.060Z,22.82
2018-05-31T06:56:07.047Z,22.77
2018-05-31T06:57:28.168Z,22.86
2018-05-31T06:58:07.029Z,22.83
2018-05-31T06:59:07.022Z,22.82
2018-05-31T07:00:07.018Z,22.72
2018-05-31T07:01:07.016Z,22.58
2018-05-31T07:02:06.996Z,22.65
2018-05-31T07:03:06.980Z,22.65
2018-05-31T07:04:06.982Z,22.67
2018-05-31T07:05:06.962Z,22.57
2018-05-31T07:06:27.968Z,22.68
2018-05-31T07:07:06.943Z,22.60
2018-05-31T07:08:06.933Z,22.65
2018-05-31T07:09:06.927Z,22.68
2018-05-31T07:10:06.951Z,22.65
2018-05-31T07:11:06.903Z,22.65
2018-05-31T07:12:06.891Z,22.70
2018-05-31T07:13:06.891Z,22.62
2018-05-31T07:14:06.877Z,22.68
2018-05-31T07:15:06.882Z,22.64
2018-05-31T07:16:06.872Z,22.57
2018-05-31T07:17:06.856Z,22.73
2018-05-31T07:18:06.841Z,22.77
2018-05-31T07:19:06.829Z,22.80
2018-05-31T07:20:06.824Z,22.79
2018-05-31T07:21:06.822Z,22.86
2018-05-31T07:22:06.801Z,22.86
2018-05-31T07:23:06.792Z,22.83
2018-05-31T07:24:06.799Z,22.88
2018-05-31T07:25:06.771Z,22.82
2018-05-31T07:26:06.773Z,22.67
2018-05-31T07:27:06.760Z,22.70
2018-05-31T07:28:06.758Z,22.70
2018-05-31T07:29:06.790Z,22.86
2018-05-31T07:30:06.729Z,22.88
2018-05-31T07:31:06.712Z,22.83
2018-05-31T07:32:06.707Z,22.90
2018-05-31T07:33:06.693Z,22.88
2018-05-31T07:34:06.696Z,22.82
2018-05-31T07:35:06.677Z,22.82
2018-05-31T07:36:06.686Z,22.75
2018-05-31T07:37:06.652Z,22.75
2018-05-31T07:38:06.649Z,22.75
2018-05-31T07:39:06.649Z,22.76
2018-05-31T07:40:06.627Z,22.73
2018-05-31T07:41:06.653Z,22.83
2018-05-31T07:42:06.621Z,22.86
2018-05-31T07:43:06.598Z,22.88
2018-05-31T07:44:06.595Z,22.91
2018-05-31T07:45:27.601Z,22.95
2018-05-31T07:46:06.572Z,22.97
2018-05-31T07:47:06.560Z,23.01
2018-05-31T07:48:06.553Z,23.09
2018-05-31T07:49:06.548Z,23.10
2018-05-31T07:50:06.547Z,23.23
2018-05-31T07:51:06.520Z,23.23
2018-05-31T07:52:06.523Z,23.20
2018-05-31T07:53:06.500Z,23.27
2018-05-31T07:54:06.498Z,23.39
2018-05-31T07:55:06.503Z,23.39
2018-05-31T07:56:06.470Z,23.38
2018-05-31T07:57:06.470Z,23.48
2018-05-31T07:58:06.497Z,23.39
2018-05-31T07:59:06.459Z,23.48
2018-05-31T08:00:06.471Z,23.48
2018-05-31T08:01:06.433Z,23.54
2018-05-31T08:02:06.447Z,23.54
2018-05-31T08:03:06.414Z,23.58
2018-05-31T08:04:06.403Z,23.57
2018-05-31T08:05:06.396Z,23.61
2018-05-31T08:06:06.385Z,23.60
2018-05-31T08:07:06.433Z,23.68
2018-05-31T08:08:06.369Z,23.73
2018-05-31T08:09:06.370Z,23.78
2018-05-31T08:10:06.350Z,23.78
2018-05-31T08:11:06.354Z,23.73
2018-05-31T08:12:06.341Z,23.83
2018-05-31T08:13:06.344Z,23.80
2018-05-31T08:14:06.320Z,23.80
2018-05-31T08:15:06.302Z,23.85
2018-05-31T08:16:06.308Z,23.93
2018-05-31T08:17:06.293Z,23.91
2018-05-31T08:18:06.291Z,24.00
2018-05-31T08:19:06.287Z,24.06
2018-05-31T08:20:06.265Z,23.98
2018-05-31T08:21:06.255Z,24.03
2018-05-31T08:22:06.242Z,24.06
2018-05-31T08:23:06.249Z,23.95
2018-05-31T08:24:06.237Z,23.93
2018-05-31T08:25:06.217Z,23.76
2018-05-31T08:26:06.209Z,23.57
2018-05-31T08:27:06.216Z,23.48
2018-05-31T08:28:06.203Z,23.50
2018-05-31T08:29:06.181Z,23.54
2018-05-31T08:30:06.178Z,23.54
2018-05-31T08:31:06.167Z,23.42
2018-05-31T08:32:06.156Z,23.36
2018-05-31T08:33:06.143Z,23.22
2018-05-31T08:34:06.150Z,23.25
2018-05-31T08:35:06.131Z,23.32
2018-05-31T08:36:06.118Z,23.32
2018-05-31T08:37:06.113Z,23.22
2018-05-31T08:38:06.119Z,23.32
2018-05-31T08:39:06.109Z,23.38
2018-05-31T08:40:06.082Z,23.35
2018-05-31T08:41:06.076Z,23.48
2018-05-31T08:42:06.063Z,23.54
2018-05-31T08:43:06.069Z,23.53
2018-05-31T08:44:06.080Z,23.63
2018-05-31T08:45:06.059Z,23.69
2018-05-31T08:46:06.044Z,23.85
2018-05-31T08:47:06.019Z,23.84
2018-05-31T08:48:06.019Z,23.91
2018-05-31T08:49:06.014Z,23.93
2018-05-31T08:50:05.996Z,23.94
2018-05-31T08:51:06.014Z,24.03
2018-05-31T08:52:05.978Z,24.09
2018-05-31T08:53:05.965Z,23.95
2018-05-31T08:54:05.955Z,23.91
2018-05-31T08:55:05.969Z,24.09
2018-05-31T08:56:05.937Z,24.03
2018-05-31T08:57:05.937Z,24.06
2018-05-31T08:58:05.933Z,23.93
2018-05-31T08:59:05.914Z,23.93
2018-05-31T09:00:05.920Z,23.95
2018-05-31T09:01:05.923Z,24.09
2018-05-31T09:02:05.889Z,23.98
2018-05-31T09:03:05.879Z,23.94
2018-05-31T09:04:05.867Z,23.94
2018-05-31T09:05:05.858Z,23.84
2018-05-31T09:06:05.863Z,23.78
2018-05-31T09:07:05.861Z,23.91
2018-05-31T09:08:05.838Z,23.93
2018-05-31T09:09:05.832Z,23.90
2018-05-31T09:10:05.819Z,23.97
2018-05-31T09:11:05.805Z,24.05
2018-05-31T09:12:05.818Z,23.93
2018-05-31T09:13:05.786Z,23.90
2018-05-31T09:14:05.784Z,23.91
2018-05-31T09:15:05.809Z,23.85
2018-05-31T09:16:05.759Z,23.91
2018-05-31T09:17:05.772Z,23.91
2018-05-31T09:18:05.759Z,23.90
2018-05-31T09:19:05.735Z,24.05
2018-05-31T09:20:05.727Z,24.05
2018-05-31T09:21:05.715Z,24.05
2018-05-31T09:22:05.727Z,23.90
2018-05-31T09:23:05.720Z,23.84
2018-05-31T09:24:05.710Z,23.80
2018-05-31T09:25:05.688Z,23.83
2018-05-31T09:26:05.684Z,23.84
2018-05-31T09:27:05.665Z,23.72
2018-05-31T09:28:05.667Z,23.83
2018-05-31T09:29:05.654Z,23.72
2018-05-31T09:30:05.655Z,23.73
2018-05-31T09:31:05.632Z,23.68
2018-05-31T09:32:05.621Z,23.73
2018-05-31T09:33:05.626Z,23.69
2018-05-31T09:34:05.606Z,23.70
2018-05-31T09:35:05.638Z,23.61
2018-05-31T09:36:05.591Z,23.58
2018-05-31T09:37:05.584Z,23.58
2018-05-31T09:38:05.570Z,23.60
2018-05-31T09:39:05.558Z,23.70
2018-05-31T09:40:05.557Z,23.73
2018-05-31T09:41:05.589Z,23.73
2018-05-31T09:42:05.541Z,23.75
2018-05-31T09:43:05.521Z,23.72
2018-05-31T09:44:05.511Z,23.72
2018-05-31T09:45:05.512Z,23.72
2018-05-31T09:46:05.510Z,23.83
2018-05-31T09:47:05.485Z,23.73
2018-05-31T09:48:05.481Z,23.68
2018-05-31T09:49:05.472Z,23.58
2018-05-31T09:50:05.467Z,23.65
2018-05-31T09:51:05.468Z,23.60
2018-05-31T09:52:05.441Z,23.55
2018-05-31T09:53:05.450Z,23.55
2018-05-31T09:54:05.426Z,23.57
2018-05-31T09:55:05.418Z,23.55
2018-05-31T09:56:05.407Z,23.51
2018-05-31T09:57:05.431Z,23.43
2018-05-31T09:58:05.397Z,23.38
2018-05-31T09:59:05.381Z,23.35
2018-05-31T10:00:05.374Z,23.39
2018-05-31T10:01:05.362Z,23.46
2018-05-31T10:02:05.348Z,23.38
2018-05-31T10:03:05.368Z,23.40
2018-05-31T10:04:05.331Z,23.39
2018-05-31T10:05:05.329Z,23.43
2018-05-31T10:06:05.316Z,23.54
2018-05-31T10:07:05.308Z,23.55
2018-05-31T10:08:05.316Z,23.55
2018-05-31T10:09:05.289Z,23.47
2018-05-31T10:10:05.276Z,23.54
2018-05-31T10:11:05.264Z,23.57
2018-05-31T10:12:05.259Z,23.46
2018-05-31T10:13:05.251Z,23.33
2018-05-31T10:14:05.261Z,23.38
2018-05-31T10:15:05.231Z,23.54
2018-05-31T10:16:05.221Z,23.61
2018-05-31T10:17:05.244Z,23.73
2018-05-31T10:18:05.222Z,23.76
2018-05-31T10:19:05.213Z,23.94
2018-05-31T10:20:05.181Z,23.97
2018-05-31T10:21:05.188Z,23.93
2018-05-31T10:22:05.172Z,23.93
2018-05-31T10:23:05.162Z,23.76
2018-05-31T10:24:05.147Z,23.75
2018-05-31T10:25:05.161Z,23.79
2018-05-31T10:26:05.129Z,23.78
2018-05-31T10:27:05.124Z,23.91
2018-05-31T10:28:05.113Z,24.09
2018-05-31T10:29:05.102Z,24.08
2018-05-31T10:30:05.113Z,24.10
2018-05-31T10:31:05.080Z,24.15
2018-05-31T10:32:05.077Z,23.91
2018-05-31T10:33:05.066Z,23.70
2018-05-31T10:34:05.060Z,23.73
2018-05-31T10:35:05.060Z,23.80
2018-05-31T10:36:05.041Z,23.84
2018-05-31T10:37:05.031Z,23.84
2018-05-31T10:38:05.026Z,23.91
2018-05-31T10:39:05.015Z,23.91
2018-05-31T10:40:05.004Z,23.80
2018-05-31T10:41:05.010Z,24.03
2018-05-31T10:42:04.985Z,24.08
2018-05-31T10:43:04.978Z,24.31
2018-05-31T10:44:04.964Z,24.37
2018-05-31T10:45:04.975Z,24.49
2018-05-31T10:46:04.973Z,24.50
2018-05-31T10:47:04.937Z,24.53
2018-05-31T10:48:04.932Z,24.65
2018-05-31T10:49:04.928Z,24.87
2018-05-31T10:50:04.932Z,24.81
2018-05-31T10:51:04.929Z,24.87
2018-05-31T10:52:04.899Z,24.90
2018-05-31T10:53:04.899Z,25.08
2018-05-31T10:54:04.883Z,25.06
2018-05-31T10:55:04.869Z,25.20
2018-05-31T10:56:04.864Z,25.27
2018-05-31T10:57:04.875Z,25.46
2018-05-31T10:58:04.847Z,25.76
2018-05-31T10:59:04.839Z,25.99
2018-05-31T11:00:04.848Z,25.67
2018-05-31T11:01:04.824Z,25.62
2018-05-31T11:02:04.836Z,25.88
2018-05-31T11:03:04.811Z,26.60
2018-05-31T11:04:04.817Z,27.13
2018-05-31T11:05:04.795Z,27.36
2018-05-31T11:06:04.785Z,27.72
2018-05-31T11:07:04.789Z,27.66
2018-05-31T11:08:04.791Z,27.22
2018-05-31T11:09:04.778Z,26.84
2018-05-31T11:10:04.754Z,26.44
2018-05-31T11:11:04.754Z,26.18
2018-05-31T11:12:04.774Z,26.25
2018-05-31T11:13:04.738Z,26.36
2018-05-31T11:14:04.733Z,26.44
2018-05-31T11:15:04.728Z,26.47
2018-05-31T11:16:04.727Z,26.54
2018-05-31T11:17:04.728Z,26.85
2018-05-31T11:18:04.724Z,27.31
2018-05-31T11:19:04.705Z,27.72
2018-05-31T11:20:04.699Z,27.90
2018-05-31T11:21:04.705Z,28.03
2018-05-31T11:22:04.688Z,27.84
2018-05-31T11:23:04.719Z,28.04
2018-05-31T11:24:04.683Z,28.06
2018-05-31T11:25:04.674Z,28.09
2018-05-31T11:26:04.672Z,28.11
2018-05-31T11:27:04.667Z,28.24
2018-05-31T11:28:04.652Z,28.41
2018-05-31T11:29:04.663Z,28.18
2018-05-31T11:30:04.649Z,28.27
2018-05-31T11:31:04.637Z,28.18
2018-05-31T11:32:04.640Z,27.92
2018-05-31T11:33:04.650Z,27.93
2018-05-31T11:34:04.620Z,27.92
2018-05-31T11:35:04.628Z,27.59
2018-05-31T11:36:04.616Z,27.36
2018-05-31T11:37:04.612Z,27.21
2018-05-31T11:38:04.599Z,27.06
2018-05-31T11:39:04.596Z,27.14
2018-05-31T11:40:04.605Z,27.04
2018-05-31T11:41:04.593Z,26.87
2018-05-31T11:42:04.576Z,26.84
2018-05-31T11:43:04.579Z,26.85
2018-05-31T11:44:04.594Z,26.84
2018-05-31T11:45:04.582Z,26.75
2018-05-31T11:46:04.558Z,26.69
2018-05-31T11:47:04.555Z,26.54
2018-05-31T11:48:04.553Z,26.50
2018-05-31T11:49:04.537Z,26.43
2018-05-31T11:50:04.565Z,26.28
2018-05-31T11:51:04.531Z,26.12
2018-05-31T11:52:04.529Z,25.90
2018-05-31T11:53:04.515Z,25.75
2018-05-31T11:54:04.505Z,25.70
2018-05-31T11:55:04.511Z,25.75
2018-05-31T11:56:04.512Z,25.72
2018-05-31T11:57:04.491Z,25.69
2018-05-31T11:58:04.484Z,25.62
2018-05-31T11:59:04.476Z,25.46
2018-05-31T12:00:04.481Z,25.45
2018-05-31T12:01:04.479Z,25.28
2018-05-31T12:02:04.475Z,25.36
2018-05-31T12:03:04.518Z,25.42
2018-05-31T12:04:04.452Z,25.45
2018-05-31T12:05:04.433Z,25.38
2018-05-31T12:06:04.433Z,25.25
2018-05-31T12:07:04.438Z,25.35
2018-05-31T12:08:04.460Z,25.51
2018-05-31T12:09:04.400Z,25.57
2018-05-31T12:10:04.393Z,25.64
2018-05-31T12:11:04.386Z,25.69
2018-05-31T12:12:04.408Z,25.64
2018-05-31T12:13:04.379Z,25.72
2018-05-31T12:14:04.393Z,25.82
2018-05-31T12:15:04.367Z,25.75
2018-05-31T12:16:04.348Z,25.80
2018-05-31T12:17:04.343Z,25.97
2018-05-31T12:18:04.354Z,26.28
2018-05-31T12:19:04.335Z,26.54
2018-05-31T12:20:04.324Z,26.63
2018-05-31T12:21:04.341Z,26.69
2018-05-31T12:22:04.313Z,26.75
2018-05-31T12:23:04.344Z,26.94
2018-05-31T12:24:04.303Z,27.02
2018-05-31T12:25:04.290Z,27.14
2018-05-31T12:26:04.277Z,27.29
2018-05-31T12:27:04.267Z,27.40
2018-05-31T12:28:04.259Z,27.49
2018-05-31T12:29:04.282Z,27.55
2018-05-31T12:30:07.753Z,27.62
2018-05-31T12:31:04.267Z,27.69
2018-05-31T12:32:04.239Z,27.81
2018-05-31T12:33:04.251Z,27.97
2018-05-31T12:34:04.247Z,28.14
2018-05-31T12:35:04.249Z,28.24
2018-05-31T12:36:04.249Z,28.18
2018-05-31T12:37:04.220Z,28.14
2018-05-31T12:38:04.213Z,28.02
2018-05-31T12:39:04.238Z,27.85
2018-05-31T12:40:04.565Z,27.70
2018-05-31T12:41:04.204Z,27.67
2018-05-31T12:42:04.186Z,27.49
2018-05-31T12:43:04.172Z,27.34
2018-05-31T12:44:04.176Z,27.19
2018-05-31T12:45:04.177Z,27.12
2018-05-31T12:46:06.799Z,27.00
2018-05-31T12:47:06.849Z,26.95
2018-05-31T12:48:04.156Z,27.03
2018-05-31T12:49:04.871Z,26.95
2018-05-31T12:50:04.181Z,26.92
2018-05-31T12:51:04.142Z,26.91
2018-05-31T12:52:18.818Z,26.87
2018-05-31T12:53:04.813Z,26.75
2018-05-31T12:54:04.119Z,26.75